Time;durP1;ratioP1;P1;durP2;ratioP2;P2;SDS_P1;SDS_P2;PMS_P1;PMS_P2;Temp;Humidity;BMP_temperature;BMP_pressure;BME280_temperature;BME280_humidity;BME280_pressure;Samples;Min_cycle;Max_cycle;Signal;HPM_P1;HPM_P2
2023/06/27 00:04:23;;;;;;;4.88;1.60;;;;;;;14.44;56.51;100704.47;10212883;29;20079;-78
2023/06/27 00:09:26;;;;;;;5.07;1.73;;;;;;;14.41;56.87;100702.03;10203531;29;20036;-78
2023/06/27 00:14:29;;;;;;;4.15;1.40;;;;;;;14.42;56.98;100714.56;10201930;29;20082;-78
2023/06/27 00:19:33;;;;;;;3.50;1.00;;;;;;;13.99;57.92;100715.72;10197375;29;20067;-78
2023/06/27 00:24:36;;;;;;;4.10;2.08;;;;;;;14.43;56.99;100722.53;10188621;29;20099;-77
2023/06/27 00:29:39;;;;;;;5.60;1.50;;;;;;;14.31;57.26;100721.75;10194122;29;20055;-78
2023/06/27 00:34:43;;;;;;;4.20;1.45;;;;;;;14.10;58.16;100723.75;10195537;29;20050;-78
2023/06/27 00:39:46;;;;;;;5.75;1.30;;;;;;;14.13;57.93;100726.16;10203585;29;20044;-78
2023/06/27 00:44:49;;;;;;;9.55;2.03;;;;;;;14.34;57.66;100723.31;10199868;29;20044;-78
2023/06/27 00:49:53;;;;;;;4.88;1.50;;;;;;;14.22;57.76;100728.00;10202257;29;20055;-77
2023/06/27 00:54:57;;;;;;;4.10;1.73;;;;;;;13.97;58.99;100721.28;10197232;29;20062;-77
2023/06/27 01:00:01;;;;;;;4.43;1.65;;;;;;;13.77;59.36;100717.69;10193393;29;20043;-78
2023/06/27 01:05:06;;;;;;;4.60;1.50;;;;;;;13.98;59.46;100714.88;10184418;29;20551;-78
2023/06/27 01:10:14;;;;;;;4.63;1.60;;;;;;;13.90;59.71;100729.09;10190871;29;20043;-78
2023/06/27 01:15:18;;;;;;;5.63;1.70;;;;;;;13.99;59.47;100713.03;10192072;29;20141;-78
2023/06/27 01:20:23;;;;;;;6.47;2.00;;;;;;;13.84;60.52;100731.47;10194994;29;20048;-77
2023/06/27 01:25:30;;;;;;;7.15;1.73;;;;;;;13.89;60.23;100723.81;10197230;29;20044;-78
2023/06/27 01:30:34;;;;;;;2.97;1.38;;;;;;;13.85;60.23;100725.94;10196089;29;20409;-78
2023/06/27 01:35:44;;;;;;;6.38;1.75;;;;;;;13.84;60.48;100712.56;10191015;29;20044;-77
2023/06/27 01:40:52;;;;;;;8.15;1.77;;;;;;;13.63;61.22;100727.00;10195785;29;20649;-77
2023/06/27 01:45:56;;;;;;;4.40;1.75;;;;;;;13.73;61.04;100716.22;10194922;29;20063;-77
2023/06/27 01:50:59;;;;;;;4.72;2.00;;;;;;;13.68;61.33;100715.78;10197050;29;20055;-76
2023/06/27 01:56:03;;;;;;;6.97;1.92;;;;;;;13.55;61.38;100704.34;10203226;29;20079;-77
2023/06/27 02:01:08;;;;;;;6.72;2.17;;;;;;;13.63;61.47;100704.53;10199636;29;20067;-78
2023/06/27 02:06:11;;;;;;;6.28;2.25;;;;;;;13.58;61.59;100707.66;10199260;29;20435;-78
2023/06/27 02:11:15;;;;;;;9.48;2.53;;;;;;;13.53;61.85;100707.22;10215003;29;20044;-77
2023/06/27 02:16:18;;;;;;;5.78;1.88;;;;;;;13.44;62.08;100700.78;10199558;29;20040;-77
2023/06/27 02:21:22;;;;;;;5.60;1.80;;;;;;;13.41;62.61;100698.38;10220711;29;20091;-77
2023/06/27 02:26:27;;;;;;;3.83;2.03;;;;;;;13.48;62.36;100688.72;10208675;29;20055;-78
2023/06/27 02:31:29;;;;;;;6.38;1.90;;;;;;;13.65;61.93;100694.47;10205435;29;20059;-77
2023/06/27 02:36:33;;;;;;;4.82;2.80;;;;;;;13.23;63.15;100689.16;10204148;29;20139;-75
2023/06/27 02:41:37;;;;;;;4.47;1.83;;;;;;;13.27;63.40;100688.75;10208973;29;20139;-78
2023/06/27 02:46:40;;;;;;;7.38;2.30;;;;;;;13.40;63.10;100693.94;10198472;29;20040;-78
2023/06/27 02:51:43;;;;;;;8.65;2.25;;;;;;;13.21;63.72;100686.56;10196578;29;20115;-78
2023/06/27 02:56:47;;;;;;;6.03;2.03;;;;;;;13.11;64.20;100683.00;10198852;29;20050;-78
2023/06/27 03:01:50;;;;;;;5.03;2.53;;;;;;;13.13;63.88;100685.53;10207372;29;20040;-77
2023/06/27 03:06:53;;;;;;;13.05;2.40;;;;;;;12.98;64.51;100688.59;10206779;29;20621;-77
2023/06/27 03:11:59;;;;;;;7.57;2.47;;;;;;;13.05;64.68;100689.78;10200833;29;20044;-77
2023/06/27 03:17:04;;;;;;;4.00;2.13;;;;;;;13.01;64.61;100698.25;10201612;29;20044;-78
2023/06/27 03:22:07;;;;;;;5.70;2.00;;;;;;;13.31;64.22;100704.66;10196637;29;20059;-78
2023/06/27 03:27:13;;;;;;;8.05;2.88;;;;;;;13.32;63.93;100712.59;10197682;29;20582;-77
2023/06/27 03:32:17;;;;;;;6.25;2.30;;;;;;;13.28;64.20;100716.59;10195519;29;20059;-78
2023/06/27 03:37:20;;;;;;;6.28;2.40;;;;;;;13.42;63.96;100708.16;10199589;29;20036;-77
2023/06/27 03:42:24;;;;;;;6.20;2.20;;;;;;;13.38;64.25;100717.50;10206190;29;20067;-78
2023/06/27 03:47:27;;;;;;;4.38;2.15;;;;;;;13.45;64.06;100717.81;10197755;29;20136;-78
2023/06/27 03:52:30;;;;;;;7.90;2.60;;;;;;;13.48;64.37;100714.84;10244323;29;20055;-76
2023/06/27 03:57:34;;;;;;;5.13;2.33;;;;;;;13.38;64.86;100725.59;10230062;29;20056;-78
2023/06/27 04:02:37;;;;;;;8.27;2.83;;;;;;;13.30;65.32;100724.53;10186165;29;20071;-77
2023/06/27 04:07:41;;;;;;;6.90;3.03;;;;;;;13.23;65.87;100722.38;10202821;29;20055;-78
2023/06/27 04:12:46;;;;;;;8.18;3.05;;;;;;;13.31;65.75;100720.84;10204206;29;20063;-77
2023/06/27 04:17:49;;;;;;;4.75;2.80;;;;;;;13.32;65.92;100728.78;10196627;29;20048;-78
2023/06/27 04:22:52;;;;;;;8.07;3.10;;;;;;;13.35;65.88;100724.97;10195417;29;20051;-77
2023/06/27 04:27:56;;;;;;;8.05;3.17;;;;;;;13.40;65.88;100723.63;10192985;29;20052;-77
2023/06/27 04:33:00;;;;;;;10.52;3.40;;;;;;;13.58;65.88;100725.72;10183456;29;20736;-78
2023/06/27 04:38:04;;;;;;;8.93;3.10;;;;;;;13.60;65.89;100726.41;10188818;29;20055;-77
2023/06/27 04:43:09;;;;;;;7.70;2.92;;;;;;;13.69;66.39;100722.91;10194777;29;20134;-77
2023/06/27 04:48:12;;;;;;;9.00;3.08;;;;;;;13.84;65.70;100724.22;10200755;29;20059;-77
2023/06/27 04:53:14;;;;;;;8.38;3.00;;;;;;;14.01;65.49;100727.25;10200586;29;20158;-78
2023/06/27 04:58:19;;;;;;;4.80;2.95;;;;;;;14.27;65.18;100723.03;10195996;29;20039;-78
2023/06/27 05:03:22;;;;;;;3.90;2.70;;;;;;;14.37;65.13;100723.91;10190229;29;20047;-77
2023/06/27 05:08:25;;;;;;;6.60;3.22;;;;;;;14.22;65.77;100727.16;10188134;29;20108;-77
2023/06/27 05:13:29;;;;;;;4.72;3.55;;;;;;;14.54;64.05;100722.38;10201062;29;20072;-78
2023/06/27 05:18:32;;;;;;;6.70;3.30;;;;;;;14.47;65.03;100715.84;10202651;29;20067;-78
2023/06/27 05:23:35;;;;;;;6.57;3.25;;;;;;;14.53;65.33;100726.06;10196989;29;20048;-78
2023/06/27 05:28:40;;;;;;;4.75;3.42;;;;;;;14.74;64.51;100712.41;10202707;29;20087;-78
2023/06/27 05:33:43;;;;;;;4.97;3.55;;;;;;;14.49;65.12;100721.09;10208045;29;20167;-78
2023/06/27 05:38:45;;;;;;;7.07;3.28;;;;;;;14.66;64.93;100709.56;10198974;29;20044;-78
2023/06/27 05:43:50;;;;;;;7.18;3.70;;;;;;;15.16;64.18;100708.50;10192666;29;20048;-77
2023/06/27 05:48:52;;;;;;;8.77;3.17;;;;;;;15.15;63.82;100707.66;10196305;29;20095;-77
2023/06/27 05:53:55;;;;;;;8.77;3.38;;;;;;;15.23;64.15;100710.47;10203707;29;20073;-77
2023/06/27 05:59:00;;;;;;;6.50;3.03;;;;;;;15.60;63.42;100709.66;10201905;29;20090;-76
2023/06/27 06:04:02;;;;;;;11.85;3.45;;;;;;;15.86;62.99;100719.81;10199672;29;20043;-76
2023/06/27 06:09:05;;;;;;;7.70;3.47;;;;;;;15.61;63.70;100718.66;10192515;29;20055;-75
2023/06/27 06:14:10;;;;;;;6.30;3.53;;;;;;;16.03;62.59;100710.00;10186572;29;20043;-76
2023/06/27 06:19:13;;;;;;;7.68;3.38;;;;;;;16.07;62.37;100719.53;10182988;29;20047;-76
2023/06/27 06:24:16;;;;;;;9.70;3.75;;;;;;;16.48;61.80;100712.72;10198213;29;20511;-77
2023/06/27 06:29:21;;;;;;;8.70;3.53;;;;;;;16.41;61.99;100711.63;10203078;29;20039;-77
2023/06/27 06:34:23;;;;;;;7.53;3.72;;;;;;;16.65;61.35;100705.59;10197187;29;20456;-77
2023/06/27 06:39:26;;;;;;;8.75;3.92;;;;;;;16.58;61.37;100712.63;10198711;29;20044;-77
2023/06/27 06:44:30;;;;;;;8.88;4.70;;;;;;;17.17;60.58;100707.56;10199813;29;20135;-76
2023/06/27 06:49:34;;;;;;;7.30;3.53;;;;;;;17.12;60.70;100713.41;10191974;29;20037;-77
2023/06/27 06:54:38;;;;;;;12.18;4.18;;;;;;;17.35;59.45;100711.03;10206001;29;20515;-77
2023/06/27 06:59:42;;;;;;;7.07;3.53;;;;;;;18.00;59.33;100705.09;10202567;29;20051;-77
2023/06/27 07:04:45;;;;;;;6.95;4.18;;;;;;;18.18;57.99;100713.09;10203635;29;20472;-78
2023/06/27 07:09:48;;;;;;;7.85;3.45;;;;;;;17.58;59.33;100707.75;10202006;29;20040;-77
2023/06/27 07:14:52;;;;;;;5.22;3.05;;;;;;;18.20;56.36;100708.34;10206009;29;20044;-77
2023/06/27 07:19:56;;;;;;;5.75;2.78;;;;;;;18.49;57.11;100709.78;10202335;29;20575;-77
2023/06/27 07:24:59;;;;;;;7.75;2.70;;;;;;;19.56;54.49;100694.22;10214981;28;20044;-77
2023/06/27 07:30:04;;;;;;;6.50;3.58;;;;;;;20.19;50.29;100700.56;10199489;29;20047;-77
2023/06/27 07:35:08;;;;;;;6.72;3.35;;;;;;;21.61;47.58;100697.13;10201782;29;20103;-78
2023/06/27 07:40:12;;;;;;;5.65;2.47;;;;;;;21.76;45.90;100697.13;10199706;29;20039;-77
2023/06/27 07:45:16;;;;;;;8.65;3.03;;;;;;;22.09;45.92;100689.31;10201808;29;20047;-77
2023/06/27 07:50:19;;;;;;;5.20;2.47;;;;;;;22.28;44.44;100682.38;10194154;29;20043;-77
2023/06/27 07:55:22;;;;;;;8.55;2.67;;;;;;;21.43;46.52;100682.97;10195492;29;20043;-78
2023/06/27 08:00:26;;;;;;;6.82;2.20;;;;;;;20.18;47.89;100685.22;10186077;29;20294;-78
2023/06/27 08:05:31;;;;;;;7.63;2.25;;;;;;;19.34;48.61;100684.91;10193861;29;20058;-78
2023/06/27 08:10:34;;;;;;;7.03;2.03;;;;;;;20.34;47.43;100696.91;10200949;29;20881;-78
2023/06/27 08:15:39;;;;;;;2.83;1.15;;;;;;;19.97;45.94;100707.69;10197796;29;20748;-77
2023/06/27 08:20:42;;;;;;;7.75;2.08;;;;;;;19.89;47.58;100692.22;10200833;29;20039;-77
2023/06/27 08:25:45;;;;;;;7.20;1.80;;;;;;;21.91;44.79;100675.22;10200592;29;20051;-77
2023/06/27 08:30:49;;;;;;;7.65;2.72;;;;;;;20.82;45.81;100677.59;10195865;29;20044;-77
2023/06/27 08:35:52;;;;;;;6.93;2.20;;;;;;;20.93;44.27;100670.84;10190265;29;20170;-77
2023/06/27 08:40:56;;;;;;;6.22;1.50;;;;;;;21.57;43.11;100667.63;10191787;29;20505;-75
2023/06/27 08:46:02;;;;;;;3.35;1.60;;;;;;;21.38;42.59;100650.75;10193530;29;20054;-76
2023/06/27 08:51:07;;;;;;;3.30;1.23;;;;;;;20.17;45.24;100669.91;10189972;29;20262;-76
2023/06/27 08:56:11;;;;;;;4.22;1.33;;;;;;;21.84;43.77;100663.38;10192479;29;20043;-76
2023/06/27 09:01:15;;;;;;;3.95;1.38;;;;;;;21.59;43.25;100662.81;10194589;29;20385;-76
2023/06/27 09:06:18;;;;;;;4.25;1.40;;;;;;;20.53;44.23;100675.63;10192801;29;20040;-76
2023/06/27 09:11:22;;;;;;;6.18;1.55;;;;;;;21.56;43.91;100671.41;10185175;29;20106;-76
2023/06/27 09:16:26;;;;;;;3.78;1.33;;;;;;;21.64;42.57;100652.16;10201674;29;20071;-76
2023/06/27 09:21:33;;;;;;;5.65;1.20;;;;;;;22.16;42.87;100667.53;10207422;29;20392;-76
2023/06/27 09:26:36;;;;;;;4.68;1.70;;;;;;;20.81;43.20;100667.69;10208410;29;20122;-76
2023/06/27 09:31:41;;;;;;;3.28;1.60;;;;;;;21.53;42.26;100655.34;10209015;29;20051;-76
2023/06/27 09:36:43;;;;;;;5.65;1.80;;;;;;;22.18;42.04;100659.13;10207203;28;20051;-76
2023/06/27 09:41:51;;;;;;;3.78;1.38;;;;;;;22.65;40.43;100660.44;10204404;29;20040;-77
2023/06/27 09:46:55;;;;;;;5.10;1.75;;;;;;;21.52;41.79;100661.88;10198139;29;20075;-77
2023/06/27 09:51:58;;;;;;;3.53;1.85;;;;;;;21.89;41.84;100649.97;10201846;29;20052;-76
2023/06/27 09:57:02;;;;;;;3.95;1.45;;;;;;;21.33;42.73;100661.38;10208096;29;20043;-76
2023/06/27 10:02:12;;;;;;;6.22;1.67;;;;;;;20.47;43.98;100663.56;10206736;29;20071;-76
2023/06/27 10:07:15;;;;;;;9.35;1.73;;;;;;;19.76;45.73;100668.25;10203987;29;20039;-76
2023/06/27 10:12:18;;;;;;;5.43;1.50;;;;;;;19.68;45.67;100671.84;10198972;29;20060;-77
2023/06/27 10:17:23;;;;;;;5.45;1.67;;;;;;;19.42;46.06;100661.22;10196727;29;20051;-76
2023/06/27 10:22:30;;;;;;;3.83;2.25;;;;;;;20.00;45.46;100656.38;10193910;29;20072;-76
2023/06/27 10:27:34;;;;;;;6.10;1.67;;;;;;;21.09;44.26;100642.53;10199872;29;20067;-76
2023/06/27 10:32:43;;;;;;;8.85;2.35;;;;;;;22.96;41.22;100632.69;10203046;29;20052;-76
2023/06/27 10:38:05;;;;;;;6.93;1.45;;;;;;;23.60;39.73;100631.59;10202533;29;20048;-77
2023/06/27 10:43:08;;;;;;;8.90;1.50;;;;;;;23.23;40.64;100628.25;10203840;29;20068;-77
2023/06/27 10:48:26;;;;;;;4.30;1.73;;;;;;;22.86;40.31;100618.50;10198249;29;20281;-76
2023/06/27 10:53:29;;;;;;;4.97;1.65;;;;;;;22.99;41.03;100611.22;10179133;29;20715;-76
2023/06/27 10:58:44;;;;;;;9.80;1.95;;;;;;;23.13;39.34;100617.66;10194656;29;20046;-76
2023/06/27 11:03:57;;;;;;;6.82;2.50;;;;;;;22.83;40.30;100611.53;10198541;29;20419;-77
2023/06/27 11:09:00;;;;;;;9.07;2.20;;;;;;;23.82;37.53;100618.63;10201768;29;20044;-76
2023/06/27 11:14:06;;;;;;;2.67;1.77;;;;;;;23.84;37.40;100622.03;10195421;29;20047;-76
2023/06/27 11:19:11;;;;;;;5.15;2.53;;;;;;;22.54;40.08;100618.00;10198492;29;20059;-76
2023/06/27 11:24:23;;;;;;;7.30;1.42;;;;;;;21.72;41.47;100618.38;10199098;29;20044;-76
2023/06/27 11:29:27;;;;;;;2.40;1.67;;;;;;;22.07;40.20;100605.75;10190350;29;20055;-77
2023/06/27 11:34:31;;;;;;;1.20;1.10;;;;;;;20.70;42.42;100616.28;10196743;29;20048;-76
2023/06/27 11:39:35;;;;;;;5.57;1.58;;;;;;;21.05;42.79;100614.78;10199992;29;20042;-76
2023/06/27 11:44:38;;;;;;;3.60;1.80;;;;;;;20.73;42.49;100610.47;10204625;29;20050;-75
2023/06/27 11:49:42;;;;;;;4.32;1.23;;;;;;;21.15;41.78;100598.13;10197380;29;20044;-76
2023/06/27 11:54:49;;;;;;;2.80;1.20;;;;;;;22.26;40.43;100598.78;10191155;29;20431;-76
2023/06/27 11:59:53;;;;;;;4.85;1.70;;;;;;;21.94;40.13;100600.16;10183789;29;20108;-76
2023/06/27 12:04:58;;;;;;;8.30;1.42;;;;;;;21.67;42.00;100599.84;10183779;29;20055;-76
2023/06/27 12:10:05;;;;;;;6.25;1.52;;;;;;;22.13;40.40;100591.28;10210565;29;20062;-77
2023/06/27 12:15:13;;;;;;;5.10;1.42;;;;;;;22.84;38.17;100596.78;10214813;29;20051;-77
2023/06/27 12:20:17;;;;;;;2.85;1.20;;;;;;;23.44;38.15;100586.19;10201155;29;20131;-77
2023/06/27 12:25:20;;;;;;;3.10;1.30;;;;;;;22.86;38.90;100575.50;10192560;29;20051;-77
2023/06/27 12:30:23;;;;;;;5.47;1.48;;;;;;;22.18;38.76;100563.38;10199469;29;20040;-76
2023/06/27 12:35:27;;;;;;;5.18;1.40;;;;;;;23.31;39.08;100569.66;10194614;29;20056;-76
2023/06/27 12:40:30;;;;;;;2.70;1.23;;;;;;;22.62;38.46;100567.75;10188701;29;20138;-77
2023/06/27 12:45:34;;;;;;;3.28;1.05;;;;;;;23.39;38.34;100580.47;10195272;29;20047;-76
2023/06/27 12:50:47;;;;;;;2.35;1.60;;;;;;;22.01;39.21;100571.00;10192378;29;20067;-76
2023/06/27 12:55:49;;;;;;;2.47;1.00;;;;;;;22.19;39.21;100557.72;10190408;29;20043;-76
2023/06/27 13:00:54;;;;;;;4.00;1.20;;;;;;;21.76;39.33;100568.63;10190418;29;20051;-76
2023/06/27 13:05:59;;;;;;;2.58;1.80;;;;;;;22.22;39.94;100568.25;10185339;29;20071;-76
2023/06/27 13:11:02;;;;;;;2.38;1.23;;;;;;;21.90;40.68;100564.16;10185021;29;20062;-76
2023/06/27 13:16:05;;;;;;;3.08;1.33;;;;;;;21.26;40.46;100564.84;10177218;29;20049;-76
2023/06/27 13:21:19;;;;;;;2.47;1.00;;;;;;;20.94;40.99;100566.06;10186004;29;20041;-76
2023/06/27 13:26:22;;;;;;;3.20;1.40;;;;;;;22.07;40.64;100553.78;10186652;29;20051;-76
2023/06/27 13:31:25;;;;;;;5.03;1.42;;;;;;;22.19;40.58;100560.44;10194729;29;20040;-76
2023/06/27 13:36:30;;;;;;;3.05;1.45;;;;;;;22.05;41.10;100547.66;10188561;29;20050;-76
2023/06/27 13:41:33;;;;;;;4.05;1.60;;;;;;;22.74;40.95;100550.59;10213681;29;20047;-78
2023/06/27 13:46:36;;;;;;;2.97;1.02;;;;;;;22.03;41.06;100550.63;10188455;29;20119;-76
2023/06/27 13:51:40;;;;;;;5.78;1.73;;;;;;;22.30;41.45;100554.44;10191963;29;20059;-77
2023/06/27 13:56:45;;;;;;;4.43;1.60;;;;;;;22.33;40.88;100547.72;10199164;29;20056;-77
2023/06/27 14:01:48;;;;;;;3.47;1.52;;;;;;;22.32;40.64;100544.16;10194773;29;20229;-77
2023/06/27 14:06:52;;;;;;;4.85;1.50;;;;;;;22.08;42.28;100544.56;10197713;29;20563;-77
2023/06/27 14:11:55;;;;;;;3.35;1.10;;;;;;;21.36;42.36;100531.75;10195377;29;20051;-77
2023/06/27 14:16:59;;;;;;;4.15;1.30;;;;;;;21.88;41.97;100536.97;10191788;29;20050;-76
2023/06/27 14:22:03;;;;;;;5.97;1.45;;;;;;;22.35;40.86;100542.88;10185047;29;20052;-76
2023/06/27 14:27:06;;;;;;;5.82;1.33;;;;;;;22.82;39.02;100527.69;10183090;29;20036;-76
2023/06/27 14:32:10;;;;;;;6.95;1.50;;;;;;;21.61;40.56;100524.06;10194201;29;20040;-76
2023/06/27 14:37:14;;;;;;;3.63;1.40;;;;;;;22.51;40.27;100511.66;10200490;29;20056;-77
2023/06/27 14:42:18;;;;;;;3.55;1.13;;;;;;;22.43;39.29;100517.25;10199156;29;20071;-77
2023/06/27 14:47:21;;;;;;;3.97;1.10;;;;;;;22.76;38.93;100512.03;10204430;29;20128;-76
2023/06/27 14:52:25;;;;;;;3.10;1.33;;;;;;;22.67;39.38;100505.88;10190600;29;20070;-77
2023/06/27 14:57:28;;;;;;;3.60;1.10;;;;;;;22.34;38.87;100501.00;10186966;29;20433;-77
2023/06/27 15:02:31;;;;;;;3.13;1.15;;;;;;;21.51;39.95;100516.19;10186671;29;20051;-76
2023/06/27 15:07:42;;;;;;;7.22;1.10;;;;;;;21.68;40.19;100517.63;10197123;29;20056;-76
2023/06/27 15:12:45;;;;;;;1.38;0.77;;;;;;;21.58;39.41;100517.09;10200710;29;20507;-76
2023/06/27 15:17:48;;;;;;;3.30;1.10;;;;;;;21.43;39.60;100516.31;10193672;29;20071;-76
2023/06/27 15:22:52;;;;;;;3.70;0.65;;;;;;;22.43;38.87;100522.72;10193040;29;20040;-77
2023/06/27 15:27:55;;;;;;;2.28;0.90;;;;;;;22.51;39.02;100522.63;10198772;29;20051;-77
2023/06/27 15:32:58;;;;;;;4.78;1.27;;;;;;;22.60;39.80;100505.00;10191524;29;20530;-76
2023/06/27 15:38:04;;;;;;;2.92;1.15;;;;;;;22.13;39.09;100511.97;10198087;29;20143;-76
2023/06/27 15:43:08;;;;;;;2.72;1.00;;;;;;;21.64;39.68;100521.81;10193161;29;20087;-76
2023/06/27 15:48:11;;;;;;;5.03;1.10;;;;;;;21.54;40.13;100514.94;10192297;29;20108;-75
2023/06/27 15:53:15;;;;;;;3.20;0.80;;;;;;;21.80;39.08;100508.94;10193372;29;20095;-76
2023/06/27 15:58:18;;;;;;;5.20;1.50;;;;;;;21.90;40.07;100506.72;10195881;29;20415;-76
2023/06/27 16:03:21;;;;;;;2.03;0.60;;;;;;;22.63;38.91;100496.41;10186538;29;20648;-77
2023/06/27 16:08:25;;;;;;;3.70;1.10;;;;;;;22.30;39.42;100496.97;10178949;29;20051;-76
2023/06/27 16:13:28;;;;;;;1.73;0.70;;;;;;;22.11;39.96;100503.13;10188127;29;20393;-77
2023/06/27 16:18:31;;;;;;;5.55;1.27;;;;;;;22.02;40.49;100498.81;10188891;29;20424;-76
2023/06/27 16:23:36;;;;;;;4.45;1.55;;;;;;;22.41;40.49;100505.69;10204346;29;20036;-76
2023/06/27 16:28:39;;;;;;;3.72;1.33;;;;;;;22.14;41.33;100504.63;10204770;29;20080;-78
2023/06/27 16:33:42;;;;;;;3.92;0.93;;;;;;;21.92;42.07;100503.81;10201515;29;20131;-76
2023/06/27 16:38:46;;;;;;;3.28;1.10;;;;;;;21.34;42.41;100501.06;10195738;29;20158;-77
2023/06/27 16:43:49;;;;;;;5.07;1.10;;;;;;;21.30;43.28;100497.00;10207873;29;20047;-80
2023/06/27 16:48:52;;;;;;;2.97;0.95;;;;;;;21.30;42.99;100491.56;10213786;29;20049;-79
2023/06/27 16:53:56;;;;;;;4.43;0.90;;;;;;;21.78;43.20;100506.41;10227495;29;20064;-79
2023/06/27 16:58:59;;;;;;;1.80;0.85;;;;;;;21.97;43.02;100512.25;10220199;29;20044;-81
2023/06/27 17:04:02;;;;;;;2.00;0.98;;;;;;;21.73;42.37;100511.56;10213053;29;20489;-80
2023/06/27 17:09:07;;;;;;;4.72;0.80;;;;;;;21.62;43.06;100520.28;10208272;29;20051;-79
2023/06/27 17:14:09;;;;;;;2.05;0.70;;;;;;;20.77;45.00;100527.19;10205532;29;20040;-80
2023/06/27 17:19:12;;;;;;;1.55;1.08;;;;;;;20.91;44.75;100529.06;10199484;29;20047;-80
2023/06/27 17:24:18;;;;;;;2.60;0.77;;;;;;;20.47;45.28;100521.69;10217565;29;20051;-78
2023/06/27 17:29:21;;;;;;;2.35;0.80;;;;;;;20.76;44.64;100530.91;10216899;29;20113;-81
2023/06/27 17:34:23;;;;;;;2.70;0.77;;;;;;;20.54;45.13;100539.03;10219936;29;20043;-79
2023/06/27 17:39:28;;;;;;;3.40;0.93;;;;;;;20.37;45.24;100526.56;10213803;29;20508;-80
2023/06/27 17:44:31;;;;;;;6.75;1.33;;;;;;;20.54;45.10;100536.28;10214942;29;20067;-79
2023/06/27 17:49:34;;;;;;;4.97;1.17;;;;;;;20.34;45.20;100530.50;10226430;29;20048;-79
2023/06/27 17:54:39;;;;;;;5.00;1.10;;;;;;;19.97;46.01;100525.88;10228221;29;20051;-81
2023/06/27 17:59:41;;;;;;;4.72;1.05;;;;;;;20.25;45.92;100520.69;10225236;29;20050;-79
2023/06/27 18:04:44;;;;;;;5.32;1.58;;;;;;;20.36;45.79;100530.31;10223408;29;20082;-80
2023/06/27 18:09:49;;;;;;;4.28;1.10;;;;;;;20.25;46.39;100531.59;10217901;29;20063;-80
2023/06/27 18:14:51;;;;;;;5.55;0.93;;;;;;;20.18;46.41;100529.78;10218659;29;20037;-81
2023/06/27 18:19:56;;;;;;;2.95;1.20;;;;;;;19.74;46.74;100531.31;10224933;28;20043;-80
2023/06/27 18:25:01;;;;;;;2.55;1.10;;;;;;;19.31;46.76;100536.31;10236962;29;20131;-80
2023/06/27 18:30:04;;;;;;;3.90;0.90;;;;;;;19.53;47.13;100539.22;10212309;29;20048;-79
2023/06/27 18:35:08;;;;;;;5.65;1.08;;;;;;;19.67;46.86;100538.53;10206180;29;20051;-78
2023/06/27 18:40:13;;;;;;;1.83;1.00;;;;;;;19.65;46.78;100540.56;10206111;29;20048;-79
2023/06/27 18:45:16;;;;;;;3.33;1.00;;;;;;;19.44;47.08;100542.03;10207193;29;20079;-79
2023/06/27 18:50:20;;;;;;;2.95;1.00;;;;;;;19.31;47.33;100538.16;10208500;29;20487;-80
2023/06/27 18:55:24;;;;;;;1.65;0.82;;;;;;;19.12;47.71;100531.31;10206643;29;20044;-80
2023/06/27 19:00:27;;;;;;;3.75;0.85;;;;;;;19.00;47.42;100522.66;10217911;29;20048;-81
2023/06/27 19:05:30;;;;;;;6.82;1.02;;;;;;;18.91;48.37;100534.59;10213623;29;20044;-80
2023/06/27 19:10:34;;;;;;;5.40;0.90;;;;;;;18.87;47.90;100544.13;10233139;29;20043;-78
2023/06/27 19:15:39;;;;;;;4.05;0.82;;;;;;;18.87;48.05;100545.00;10215478;29;20071;-79
2023/06/27 19:20:42;;;;;;;3.63;1.38;;;;;;;18.91;47.87;100557.22;10213296;29;20048;-80
2023/06/27 19:25:47;;;;;;;2.47;0.98;;;;;;;18.84;47.94;100560.81;10222611;29;20518;-79
2023/06/27 19:30:50;;;;;;;3.42;1.90;;;;;;;18.64;48.75;100558.44;10210057;29;20047;-80
2023/06/27 19:35:55;;;;;;;1.80;1.10;;;;;;;18.53;48.91;100566.97;10205538;29;20047;-79
2023/06/27 19:40:59;;;;;;;2.70;1.27;;;;;;;18.43;49.49;100566.28;10209978;29;20063;-79
2023/06/27 19:46:02;;;;;;;1.63;0.90;;;;;;;18.12;50.41;100573.25;10217943;28;20048;-80
2023/06/27 19:51:09;;;;;;;3.10;1.15;;;;;;;18.00;50.42;100571.91;10208201;29;20055;-80
2023/06/27 19:56:14;;;;;;;7.13;1.48;;;;;;;17.97;50.89;100568.66;10200379;29;20040;-80
2023/06/27 20:01:17;;;;;;;3.78;1.20;;;;;;;17.89;51.18;100569.50;10212387;29;20039;-80
2023/06/27 20:06:20;;;;;;;7.35;1.20;;;;;;;17.86;51.46;100576.09;10207065;29;20040;-80
2023/06/27 20:11:24;;;;;;;1.40;1.15;;;;;;;17.85;51.56;100592.56;10203064;29;20043;-81
2023/06/27 20:16:27;;;;;;;3.50;1.10;;;;;;;17.78;51.58;100596.97;10227490;28;20492;-79
2023/06/27 20:21:30;;;;;;;4.13;1.00;;;;;;;17.70;52.59;100595.09;10204531;29;20945;-80
2023/06/27 20:26:34;;;;;;;3.25;1.23;;;;;;;17.48;52.64;100597.41;10209222;29;20044;-80
2023/06/27 20:31:37;;;;;;;2.90;0.82;;;;;;;17.34;52.71;100603.47;10205298;29;20123;-80
2023/06/27 20:36:40;;;;;;;2.60;1.80;;;;;;;17.33;52.69;100611.75;10203412;29;20507;-80
2023/06/27 20:41:45;;;;;;;3.60;1.08;;;;;;;17.30;53.57;100609.38;10214717;29;20047;-80
2023/06/27 20:46:51;;;;;;;4.18;1.58;;;;;;;17.20;54.10;100618.50;10203416;29;20039;-79
2023/06/27 20:51:54;;;;;;;2.47;1.48;;;;;;;16.94;53.94;100618.47;10203023;29;20050;-80
2023/06/27 20:56:58;;;;;;;3.38;1.20;;;;;;;16.86;54.31;100610.28;10209615;29;20044;-79
2023/06/27 21:02:01;;;;;;;4.72;2.13;;;;;;;16.87;53.90;100605.72;10206587;29;20054;-80
2023/06/27 21:07:04;;;;;;;3.00;1.00;;;;;;;16.81;54.24;100613.50;10209270;29;20095;-78
2023/06/27 21:12:10;;;;;;;3.63;1.60;;;;;;;16.61;53.55;100603.00;10200743;29;20500;-78
2023/06/27 21:17:15;;;;;;;3.58;1.17;;;;;;;16.46;54.22;100608.16;10212338;29;20047;-78
2023/06/27 21:22:18;;;;;;;3.80;1.50;;;;;;;16.42;54.53;100618.44;10205237;29;20151;-78
2023/06/27 21:27:24;;;;;;;5.32;0.90;;;;;;;16.54;54.53;100613.63;10199595;29;20384;-78
2023/06/27 21:32:43;;;;;;;3.90;1.27;;;;;;;16.45;54.29;100619.97;10206016;29;20107;-78
2023/06/27 21:37:47;;;;;;;5.97;1.30;;;;;;;16.41;55.12;100611.31;10207751;29;20058;-77
2023/06/27 21:42:51;;;;;;;1.90;1.10;;;;;;;16.39;54.54;100612.50;10202467;29;20044;-78
2023/06/27 21:47:54;;;;;;;2.13;0.93;;;;;;;16.30;55.14;100606.16;10199199;29;20050;-78
2023/06/27 21:52:57;;;;;;;2.03;1.02;;;;;;;16.36;55.44;100610.94;10190212;29;20044;-78
2023/06/27 21:58:02;;;;;;;5.10;1.17;;;;;;;16.37;55.21;100604.50;10194238;29;20054;-79
2023/06/27 22:03:04;;;;;;;2.88;1.15;;;;;;;16.13;55.23;100603.25;10203612;29;20044;-78
2023/06/27 22:08:08;;;;;;;3.03;1.08;;;;;;;15.83;56.27;100606.34;10205312;29;20047;-78
2023/06/27 22:13:12;;;;;;;2.83;1.10;;;;;;;15.77;57.01;100612.34;10209706;29;20040;-79
2023/06/27 22:18:15;;;;;;;3.47;1.17;;;;;;;15.78;56.78;100606.81;10206097;29;20048;-77
2023/06/27 22:23:18;;;;;;;6.07;1.30;;;;;;;15.66;56.67;100619.72;10203072;29;20067;-77
2023/06/27 22:28:22;;;;;;;3.20;1.48;;;;;;;15.49;57.07;100604.25;10197368;29;20048;-78
2023/06/27 22:33:25;;;;;;;7.45;2.25;;;;;;;15.41;57.56;100606.88;10210917;29;20886;-79
2023/06/27 22:38:28;;;;;;;4.18;1.70;;;;;;;15.37;58.23;100613.59;10199291;29;20119;-78
2023/06/27 22:43:32;;;;;;;5.60;1.38;;;;;;;15.21;58.44;100615.06;10201845;29;20099;-77
2023/06/27 22:48:35;;;;;;;2.97;1.40;;;;;;;15.16;58.91;100613.78;10204543;29;20400;-78
2023/06/27 22:53:43;;;;;;;4.80;1.52;;;;;;;15.11;59.45;100613.38;10211408;29;20492;-78
2023/06/27 22:58:47;;;;;;;4.40;1.83;;;;;;;15.10;59.48;100611.69;10203851;29;20090;-78
2023/06/27 23:03:50;;;;;;;4.60;1.65;;;;;;;15.00;60.34;100617.13;10201683;29;20066;-78
2023/06/27 23:08:53;;;;;;;6.18;2.25;;;;;;;14.88;60.83;100615.59;10195885;29;20468;-78
2023/06/27 23:13:57;;;;;;;8.27;2.30;;;;;;;14.54;61.88;100619.66;10199690;29;20169;-78
2023/06/27 23:19:02;;;;;;;3.17;2.05;;;;;;;14.67;61.50;100615.78;10199431;29;20055;-78